sensor_id;sensor_type;location;lat;lon;timestamp;pressure;altitude;pressure_sealevel;temperature;humidity
69574;BME280;62840;52.366;5.980;2024-02-21T00:01:00;102020.50;;;9.87;75.36
69574;BME280;62840;52.366;5.980;2024-02-21T00:03:26;102023.34;;;9.83;75.37
69574;BME280;62840;52.366;5.980;2024-02-21T00:05:52;102025.06;;;9.84;75.57
69574;BME280;62840;52.366;5.980;2024-02-21T00:08:17;102024.22;;;9.84;75.38
69574;BME280;62840;52.366;5.980;2024-02-21T00:10:43;102018.88;;;9.84;75.62
69574;BME280;62840;52.366;5.980;2024-02-21T00:13:09;102017.84;;;9.87;75.54
69574;BME280;62840;52.366;5.980;2024-02-21T00:15:35;102022.41;;;9.84;75.29
69574;BME280;62840;52.366;5.980;2024-02-21T00:18:04;102016.13;;;9.86;75.21
69574;BME280;62840;52.366;5.980;2024-02-21T00:20:30;102016.13;;;9.86;75.50
69574;BME280;62840;52.366;5.980;2024-02-21T00:22:56;102024.13;;;9.86;75.45
69574;BME280;62840;52.366;5.980;2024-02-21T00:25:22;102017.06;;;9.84;75.33
69574;BME280;62840;52.366;5.980;2024-02-21T00:27:47;102018.03;;;9.83;75.30
69574;BME280;62840;52.366;5.980;2024-02-21T00:30:13;102012.69;;;9.83;75.42
69574;BME280;62840;52.366;5.980;2024-02-21T00:32:39;102014.41;;;9.84;75.35
69574;BME280;62840;52.366;5.980;2024-02-21T00:35:08;102007.16;;;9.87;75.18
69574;BME280;62840;52.366;5.980;2024-02-21T00:37:34;102009.06;;;9.84;75.28
69574;BME280;62840;52.366;5.980;2024-02-21T00:40:00;102003.66;;;9.86;75.29
69574;BME280;62840;52.366;5.980;2024-02-21T00:42:26;102005.28;;;9.89;75.35
69574;BME280;62840;52.366;5.980;2024-02-21T00:44:52;101995.47;;;9.89;75.23
69574;BME280;62840;52.366;5.980;2024-02-21T00:47:17;101983.97;;;9.89;75.18
69574;BME280;62840;52.366;5.980;2024-02-21T00:49:43;101980.31;;;9.90;75.37
69574;BME280;62840;52.366;5.980;2024-02-21T00:52:12;101985.66;;;9.90;75.25
69574;BME280;62840;52.366;5.980;2024-02-21T00:54:38;101979.47;;;9.89;75.27
69574;BME280;62840;52.366;5.980;2024-02-21T00:57:04;101981.28;;;9.89;75.25
69574;BME280;62840;52.366;5.980;2024-02-21T00:59:30;101979.69;;;9.86;75.19
69574;BME280;62840;52.366;5.980;2024-02-21T01:01:56;101977.09;;;9.84;75.57
69574;BME280;62840;52.366;5.980;2024-02-21T01:04:22;101986.06;;;9.83;75.20
69574;BME280;62840;52.366;5.980;2024-02-21T01:06:47;101973.66;;;9.82;75.24
69574;BME280;62840;52.366;5.980;2024-02-21T01:09:16;101989.66;;;9.82;75.32
69574;BME280;62840;52.366;5.980;2024-02-21T01:11:42;101987.75;;;9.84;75.29
69574;BME280;62840;52.366;5.980;2024-02-21T01:14:08;101977.09;;;9.84;75.25
69574;BME280;62840;52.366;5.980;2024-02-21T01:16:33;101972.72;;;9.83;74.96
69574;BME280;62840;52.366;5.980;2024-02-21T01:18:59;101973.59;;;9.84;75.14
69574;BME280;62840;52.366;5.980;2024-02-21T01:21:25;101970.91;;;9.84;75.08
69574;BME280;62840;52.366;5.980;2024-02-21T01:23:51;101971.78;;;9.84;75.20
69574;BME280;62840;52.366;5.980;2024-02-21T01:26:19;101970.84;;;9.86;75.20
69574;BME280;62840;52.366;5.980;2024-02-21T01:28:45;101973.50;;;9.86;75.12
69574;BME280;62840;52.366;5.980;2024-02-21T01:31:11;101973.50;;;9.86;75.18
69574;BME280;62840;52.366;5.980;2024-02-21T01:33:37;101962.94;;;9.84;74.92
69574;BME280;62840;52.366;5.980;2024-02-21T01:36:04;101961.97;;;9.85;75.28
69574;BME280;62840;52.366;5.980;2024-02-21T01:38:30;101955.78;;;9.84;75.15
69574;BME280;62840;52.366;5.980;2024-02-21T01:40:56;101947.03;;;9.82;75.02
69574;BME280;62840;52.366;5.980;2024-02-21T01:43:24;101940.00;;;9.81;75.15
69574;BME280;62840;52.366;5.980;2024-02-21T01:45:52;101935.53;;;9.82;75.16
69574;BME280;62840;52.366;5.980;2024-02-21T01:48:20;101934.66;;;9.81;75.09
69574;BME280;62840;52.366;5.980;2024-02-21T01:50:48;101933.81;;;9.81;75.07
69574;BME280;62840;52.366;5.980;2024-02-21T01:53:17;101934.66;;;9.81;75.21
69574;BME280;62840;52.366;5.980;2024-02-21T01:55:46;101928.56;;;9.79;75.15
69574;BME280;62840;52.366;5.980;2024-02-21T01:58:13;101924.19;;;9.78;75.14
69574;BME280;62840;52.366;5.980;2024-02-21T02:00:43;101921.53;;;9.78;75.06
69574;BME280;62840;52.366;5.980;2024-02-21T02:03:10;101911.81;;;9.77;74.88
69574;BME280;62840;52.366;5.980;2024-02-21T02:05:37;101909.16;;;9.77;75.07
69574;BME280;62840;52.366;5.980;2024-02-21T02:08:03;101909.16;;;9.77;74.84
69574;BME280;62840;52.366;5.980;2024-02-21T02:10:29;101901.16;;;9.77;75.01
69574;BME280;62840;52.366;5.980;2024-02-21T02:12:55;101898.31;;;9.80;75.19
69574;BME280;62840;52.366;5.980;2024-02-21T02:15:21;101900.13;;;9.80;74.95
69574;BME280;62840;52.366;5.980;2024-02-21T02:17:49;101899.28;;;9.79;75.02
69574;BME280;62840;52.366;5.980;2024-02-21T02:20:15;101888.63;;;9.79;75.09
69574;BME280;62840;52.366;5.980;2024-02-21T02:22:43;101896.53;;;9.81;75.06
69574;BME280;62840;52.366;5.980;2024-02-21T02:25:15;101892.88;;;9.82;74.98
69574;BME280;62840;52.366;5.980;2024-02-21T02:27:44;101895.47;;;9.83;75.13
69574;BME280;62840;52.366;5.980;2024-02-21T02:30:11;101898.00;;;9.85;75.07
69574;BME280;62840;52.366;5.980;2024-02-21T02:32:37;101901.56;;;9.86;74.87
69574;BME280;62840;52.366;5.980;2024-02-21T02:35:04;101906.88;;;9.86;74.87
69574;BME280;62840;52.366;5.980;2024-02-21T02:37:30;101902.50;;;9.84;74.90
69574;BME280;62840;52.366;5.980;2024-02-21T02:39:56;101907.81;;;9.84;74.83
69574;BME280;62840;52.366;5.980;2024-02-21T02:42:25;101906.13;;;9.83;74.94
69574;BME280;62840;52.366;5.980;2024-02-21T02:44:50;101892.81;;;9.83;75.07
69574;BME280;62840;52.366;5.980;2024-02-21T02:47:16;101888.31;;;9.84;74.83
69574;BME280;62840;52.366;5.980;2024-02-21T02:49:42;101884.81;;;9.83;75.08
69574;BME280;62840;52.366;5.980;2024-02-21T02:52:08;101883.75;;;9.86;75.00
69574;BME280;62840;52.366;5.980;2024-02-21T02:54:34;101889.94;;;9.87;75.00
69574;BME280;62840;52.366;5.980;2024-02-21T02:57:00;101880.13;;;9.87;75.01
69574;BME280;62840;52.366;5.980;2024-02-21T02:59:28;101884.59;;;9.87;75.09
69574;BME280;62840;52.366;5.980;2024-02-21T03:01:54;101877.47;;;9.87;74.90
69574;BME280;62840;52.366;5.980;2024-02-21T03:04:20;101877.59;;;9.86;74.98
69574;BME280;62840;52.366;5.980;2024-02-21T03:06:46;101875.00;;;9.84;74.86
69574;BME280;62840;52.366;5.980;2024-02-21T03:09:11;101873.94;;;9.87;75.08
69574;BME280;62840;52.366;5.980;2024-02-21T03:11:37;101864.06;;;9.89;75.05
69574;BME280;62840;52.366;5.980;2024-02-21T03:14:03;101867.56;;;9.89;75.15
69574;BME280;62840;52.366;5.980;2024-02-21T03:16:31;101862.25;;;9.89;74.92
69574;BME280;62840;52.366;5.980;2024-02-21T03:18:57;101866.72;;;9.89;75.25
69574;BME280;62840;52.366;5.980;2024-02-21T03:21:23;101871.06;;;9.90;75.02
69574;BME280;62840;52.366;5.980;2024-02-21T03:23:49;101858.63;;;9.90;75.08
69574;BME280;62840;52.366;5.980;2024-02-21T03:26:15;101860.34;;;9.91;75.12
69574;BME280;62840;52.366;5.980;2024-02-21T03:28:41;101861.19;;;9.92;75.08
69574;BME280;62840;52.366;5.980;2024-02-21T03:31:06;101861.19;;;9.92;75.02
69574;BME280;62840;52.366;5.980;2024-02-21T03:33:35;101860.34;;;9.91;75.04
69574;BME280;62840;52.366;5.980;2024-02-21T03:36:01;101853.19;;;9.92;74.90
69574;BME280;62840;52.366;5.980;2024-02-21T03:38:27;101852.25;;;9.93;75.13
69574;BME280;62840;52.366;5.980;2024-02-21T03:40:53;101842.44;;;9.93;75.03
69574;BME280;62840;52.366;5.980;2024-02-21T03:43:18;101845.03;;;9.95;75.28
69574;BME280;62840;52.366;5.980;2024-02-21T03:45:44;101831.78;;;9.93;75.00
69574;BME280;62840;52.366;5.980;2024-02-21T03:48:10;101832.63;;;9.94;75.12
69574;BME280;62840;52.366;5.980;2024-02-21T03:50:39;101831.69;;;9.95;75.23
69574;BME280;62840;52.366;5.980;2024-02-21T03:53:04;101811.31;;;9.94;75.06
69574;BME280;62840;52.366;5.980;2024-02-21T03:55:30;101816.63;;;9.94;75.20
69574;BME280;62840;52.366;5.980;2024-02-21T03:57:56;101809.63;;;9.93;75.21
69574;BME280;62840;52.366;5.980;2024-02-21T04:00:23;101807.88;;;9.92;75.43
69574;BME280;62840;52.366;5.980;2024-02-21T04:02:49;101807.88;;;9.92;75.24
69574;BME280;62840;52.366;5.980;2024-02-21T04:05:15;101814.94;;;9.93;75.37
69574;BME280;62840;52.366;5.980;2024-02-21T04:07:44;101821.13;;;9.93;75.21
69574;BME280;62840;52.366;5.980;2024-02-21T04:10:10;101821.97;;;9.94;75.12
69574;BME280;62840;52.366;5.980;2024-02-21T04:12:36;101813.03;;;9.95;75.29
69574;BME280;62840;52.366;5.980;2024-02-21T04:15:03;101810.47;;;9.93;74.99
69574;BME280;62840;52.366;5.980;2024-02-21T04:17:29;101809.63;;;9.93;75.37
69574;BME280;62840;52.366;5.980;2024-02-21T04:20:03;101807.72;;;9.95;75.28
69574;BME280;62840;52.366;5.980;2024-02-21T04:22:30;101817.41;;;9.96;75.08
69574;BME280;62840;52.366;5.980;2024-02-21T04:24:59;101812.84;;;9.98;75.12
69574;BME280;62840;52.366;5.980;2024-02-21T04:27:25;101806.56;;;9.99;74.96
69574;BME280;62840;52.366;5.980;2024-02-21T04:29:52;101793.25;;;9.99;75.21
69574;BME280;62840;52.366;5.980;2024-02-21T04:32:18;101784.47;;;9.97;75.13
69574;BME280;62840;52.366;5.980;2024-02-21T04:34:44;101790.66;;;9.97;74.98
69574;BME280;62840;52.366;5.980;2024-02-21T04:37:10;101784.47;;;9.97;74.95
69574;BME280;62840;52.366;5.980;2024-02-21T04:39:36;101781.06;;;9.95;74.87
69574;BME280;62840;52.366;5.980;2024-02-21T04:42:05;101789.06;;;9.95;74.92
69574;BME280;62840;52.366;5.980;2024-02-21T04:44:30;101792.66;;;9.94;75.09
69574;BME280;62840;52.366;5.980;2024-02-21T04:46:56;101780.41;;;9.91;74.94
69574;BME280;62840;52.366;5.980;2024-02-21T04:49:22;101783.16;;;9.90;74.91
69574;BME280;62840;52.366;5.980;2024-02-21T04:51:48;101776.13;;;9.89;74.93
69574;BME280;62840;52.366;5.980;2024-02-21T04:54:14;101776.13;;;9.89;74.82
69574;BME280;62840;52.366;5.980;2024-02-21T04:56:40;101779.75;;;9.88;74.98
69574;BME280;62840;52.366;5.980;2024-02-21T04:59:08;101774.44;;;9.88;74.90
69574;BME280;62840;52.366;5.980;2024-02-21T05:01:34;101767.38;;;9.87;74.87
69574;BME280;62840;52.366;5.980;2024-02-21T05:04:00;101766.44;;;9.88;74.95
69574;BME280;62840;52.366;5.980;2024-02-21T05:06:26;101755.78;;;9.88;74.92
69574;BME280;62840;52.366;5.980;2024-02-21T05:08:51;101770.78;;;9.89;75.04
69574;BME280;62840;52.366;5.980;2024-02-21T05:11:17;101765.47;;;9.89;74.93
69574;BME280;62840;52.366;5.980;2024-02-21T05:13:43;101763.78;;;9.88;74.82
69574;BME280;62840;52.366;5.980;2024-02-21T05:16:12;101762.88;;;9.87;74.79
69574;BME280;62840;52.366;5.980;2024-02-21T05:18:37;101756.72;;;9.87;74.72
69574;BME280;62840;52.366;5.980;2024-02-21T05:21:04;101756.72;;;9.87;74.77
69574;BME280;62840;52.366;5.980;2024-02-21T05:23:29;101747.03;;;9.86;74.78
69574;BME280;62840;52.366;5.980;2024-02-21T05:25:55;101747.97;;;9.84;75.06
69574;BME280;62840;52.366;5.980;2024-02-21T05:28:21;101750.53;;;9.86;75.01
69574;BME280;62840;52.366;5.980;2024-02-21T05:30:47;101744.38;;;9.86;74.89
69574;BME280;62840;52.366;5.980;2024-02-21T05:33:15;101743.47;;;9.85;74.82
69574;BME280;62840;52.366;5.980;2024-02-21T05:35:41;101737.31;;;9.84;75.12
69574;BME280;62840;52.366;5.980;2024-02-21T05:38:07;101731.97;;;9.84;74.85
69574;BME280;62840;52.366;5.980;2024-02-21T05:40:33;101731.97;;;9.84;74.88
69574;BME280;62840;52.366;5.980;2024-02-21T05:42:59;101731.97;;;9.84;74.84
69574;BME280;62840;52.366;5.980;2024-02-21T05:45:25;101738.16;;;9.85;74.74
69574;BME280;62840;52.366;5.980;2024-02-21T05:47:50;101731.13;;;9.84;74.74
69574;BME280;62840;52.366;5.980;2024-02-21T05:50:19;101723.22;;;9.82;74.64
69574;BME280;62840;52.366;5.980;2024-02-21T05:52:45;101717.16;;;9.80;74.71
69574;BME280;62840;52.366;5.980;2024-02-21T05:55:11;101714.47;;;9.80;74.83
69574;BME280;62840;52.366;5.980;2024-02-21T05:57:36;101709.16;;;9.80;74.91
69574;BME280;62840;52.366;5.980;2024-02-21T06:00:04;101703.81;;;9.80;74.77
69574;BME280;62840;52.366;5.980;2024-02-21T06:02:31;101702.97;;;9.80;74.87
69574;BME280;62840;52.366;5.980;2024-02-21T06:04:57;101689.66;;;9.80;74.75
69574;BME280;62840;52.366;5.980;2024-02-21T06:07:25;101686.16;;;9.79;74.82
69574;BME280;62840;52.366;5.980;2024-02-21T06:09:51;101686.16;;;9.79;74.74
69574;BME280;62840;52.366;5.980;2024-02-21T06:12:17;101682.72;;;9.77;75.00
69574;BME280;62840;52.366;5.980;2024-02-21T06:14:43;101688.06;;;9.77;74.85
69574;BME280;62840;52.366;5.980;2024-02-21T06:17:09;101676.44;;;9.78;74.85
69574;BME280;62840;52.366;5.980;2024-02-21T06:19:35;101685.38;;;9.77;74.99
69574;BME280;62840;52.366;5.980;2024-02-21T06:22:00;101682.72;;;9.77;74.89
69574;BME280;62840;52.366;5.980;2024-02-21T06:24:29;101680.91;;;9.78;74.94
69574;BME280;62840;52.366;5.980;2024-02-21T06:26:55;101684.41;;;9.78;74.74
69574;BME280;62840;52.366;5.980;2024-02-21T06:29:21;101677.41;;;9.77;74.84
69574;BME280;62840;52.366;5.980;2024-02-21T06:31:46;101678.38;;;9.76;74.76
69574;BME280;62840;52.366;5.980;2024-02-21T06:34:12;101675.69;;;9.76;74.85
69574;BME280;62840;52.366;5.980;2024-02-21T06:36:38;101682.72;;;9.77;74.73
69574;BME280;62840;52.366;5.980;2024-02-21T06:39:04;101675.69;;;9.76;74.64
69574;BME280;62840;52.366;5.980;2024-02-21T06:41:32;101673.97;;;9.75;74.80
69574;BME280;62840;52.366;5.980;2024-02-21T06:43:58;101684.63;;;9.75;74.86
69574;BME280;62840;52.366;5.980;2024-02-21T06:46:25;101685.47;;;9.76;74.74
69574;BME280;62840;52.366;5.980;2024-02-21T06:48:51;101686.34;;;9.76;74.66
69574;BME280;62840;52.366;5.980;2024-02-21T06:51:18;101686.34;;;9.76;74.78
69574;BME280;62840;52.366;5.980;2024-02-21T06:53:44;101688.13;;;9.76;74.71
69574;BME280;62840;52.366;5.980;2024-02-21T06:56:10;101680.28;;;9.74;74.59
69574;BME280;62840;52.366;5.980;2024-02-21T06:58:38;101675.88;;;9.73;74.70
69574;BME280;62840;52.366;5.980;2024-02-21T07:01:04;101683.13;;;9.71;74.66
69574;BME280;62840;52.366;5.980;2024-02-21T07:03:30;101676.94;;;9.71;74.79
69574;BME280;62840;52.366;5.980;2024-02-21T07:05:56;101674.38;;;9.69;74.64
69574;BME280;62840;52.366;5.980;2024-02-21T07:08:22;101672.69;;;9.68;74.75
69574;BME280;62840;52.366;5.980;2024-02-21T07:10:48;101678.84;;;9.69;74.74
69574;BME280;62840;52.366;5.980;2024-02-21T07:13:14;101677.91;;;9.70;74.90
69574;BME280;62840;52.366;5.980;2024-02-21T07:15:42;101670.78;;;9.70;74.78
69574;BME280;62840;52.366;5.980;2024-02-21T07:18:08;101671.72;;;9.69;74.72
69574;BME280;62840;52.366;5.980;2024-02-21T07:20:34;101663.72;;;9.69;74.65
69574;BME280;62840;52.366;5.980;2024-02-21T07:23:00;101664.69;;;9.68;74.70
69574;BME280;62840;52.366;5.980;2024-02-21T07:25:26;101662.03;;;9.68;74.64
69574;BME280;62840;52.366;5.980;2024-02-21T07:27:51;101663.72;;;9.69;74.58
69574;BME280;62840;52.366;5.980;2024-02-21T07:30:18;101653.28;;;9.66;74.41
69574;BME280;62840;52.366;5.980;2024-02-21T07:32:49;101652.44;;;9.66;74.63
69574;BME280;62840;52.366;5.980;2024-02-21T07:35:15;101644.53;;;9.64;74.64
69574;BME280;62840;52.366;5.980;2024-02-21T07:37:41;101639.19;;;9.64;74.75
69574;BME280;62840;52.366;5.980;2024-02-21T07:40:12;101642.63;;;9.66;74.83
69574;BME280;62840;52.366;5.980;2024-02-21T07:42:39;101642.63;;;9.66;74.62
69574;BME280;62840;52.366;5.980;2024-02-21T07:45:05;101637.28;;;9.66;74.62
69574;BME280;62840;52.366;5.980;2024-02-21T07:47:32;101632.72;;;9.68;74.47
69574;BME280;62840;52.366;5.980;2024-02-21T07:50:01;101629.97;;;9.70;74.60
69574;BME280;62840;52.366;5.980;2024-02-21T07:52:27;101628.16;;;9.70;74.55
69574;BME280;62840;52.366;5.980;2024-02-21T07:54:53;101613.88;;;9.71;74.50
69574;BME280;62840;52.366;5.980;2024-02-21T07:57:19;101603.22;;;9.71;74.51
69574;BME280;62840;52.366;5.980;2024-02-21T07:59:45;101596.19;;;9.70;74.53
69574;BME280;62840;52.366;5.980;2024-02-21T08:02:11;101596.19;;;9.70;74.49
69574;BME280;62840;52.366;5.980;2024-02-21T08:04:37;101594.47;;;9.69;74.72
69574;BME280;62840;52.366;5.980;2024-02-21T08:07:05;101591.72;;;9.71;74.61
69574;BME280;62840;52.366;5.980;2024-02-21T08:09:32;101592.56;;;9.71;74.44
69574;BME280;62840;52.366;5.980;2024-02-21T08:11:57;101590.78;;;9.72;74.37
69574;BME280;62840;52.366;5.980;2024-02-21T08:14:23;101586.28;;;9.72;74.30
69574;BME280;62840;52.366;5.980;2024-02-21T08:16:49;101586.28;;;9.72;74.15
69574;BME280;62840;52.366;5.980;2024-02-21T08:19:15;101585.31;;;9.73;74.39
69574;BME280;62840;52.366;5.980;2024-02-21T08:21:41;101580.00;;;9.73;74.37
69574;BME280;62840;52.366;5.980;2024-02-21T08:24:09;101589.56;;;9.76;74.41
69574;BME280;62840;52.366;5.980;2024-02-21T08:26:39;101586.72;;;9.79;74.33
69574;BME280;62840;52.366;5.980;2024-02-21T08:29:06;101586.59;;;9.80;74.19
69574;BME280;62840;52.366;5.980;2024-02-21T08:31:31;101574.03;;;9.82;74.17
69574;BME280;62840;52.366;5.980;2024-02-21T08:33:57;101576.59;;;9.84;74.14
69574;BME280;62840;52.366;5.980;2024-02-21T08:36:23;101570.44;;;9.83;74.13
69574;BME280;62840;52.366;5.980;2024-02-21T08:38:49;101568.53;;;9.86;74.03
69574;BME280;62840;52.366;5.980;2024-02-21T08:41:18;101554.22;;;9.87;74.26
69574;BME280;62840;52.366;5.980;2024-02-21T08:43:43;101562.13;;;9.88;74.13
69574;BME280;62840;52.366;5.980;2024-02-21T08:46:09;101546.97;;;9.89;74.13
69574;BME280;62840;52.366;5.980;2024-02-21T08:48:35;101566.38;;;9.91;74.00
69574;BME280;62840;52.366;5.980;2024-02-21T08:51:01;101554.75;;;9.92;73.78
69574;BME280;62840;52.366;5.980;2024-02-21T08:53:27;101550.41;;;9.91;73.99
69574;BME280;62840;52.366;5.980;2024-02-21T08:55:53;101550.41;;;9.91;73.86
69574;BME280;62840;52.366;5.980;2024-02-21T08:58:21;101537.16;;;9.89;74.00
69574;BME280;62840;52.366;5.980;2024-02-21T09:00:47;101530.03;;;9.90;73.93
69574;BME280;62840;52.366;5.980;2024-02-21T09:03:13;101534.41;;;9.91;74.02
69574;BME280;62840;52.366;5.980;2024-02-21T09:05:39;101537.16;;;9.89;73.81
69574;BME280;62840;52.366;5.980;2024-02-21T09:08:05;101532.69;;;9.90;73.80
69574;BME280;62840;52.366;5.980;2024-02-21T09:10:31;101524.81;;;9.88;73.83
69574;BME280;62840;52.366;5.980;2024-02-21T09:12:57;101529.50;;;9.84;73.88
69574;BME280;62840;52.366;5.980;2024-02-21T09:15:26;101543.56;;;9.87;73.78
69574;BME280;62840;52.366;5.980;2024-02-21T09:17:51;101528.44;;;9.87;73.98
69574;BME280;62840;52.366;5.980;2024-02-21T09:20:17;101524.81;;;9.88;73.66
69574;BME280;62840;52.366;5.980;2024-02-21T09:22:43;101527.34;;;9.90;73.88
69574;BME280;62840;52.366;5.980;2024-02-21T09:25:09;101521.09;;;9.91;73.71
69574;BME280;62840;52.366;5.980;2024-02-21T09:27:35;101519.19;;;9.93;73.89
69574;BME280;62840;52.366;5.980;2024-02-21T09:30:01;101507.53;;;9.94;73.92
69574;BME280;62840;52.366;5.980;2024-02-21T09:32:29;101501.16;;;9.96;73.76
69574;BME280;62840;52.366;5.980;2024-02-21T09:34:55;101506.28;;;9.99;73.93
69574;BME280;62840;52.366;5.980;2024-02-21T09:37:21;101495.41;;;10.02;73.93
69574;BME280;62840;52.366;5.980;2024-02-21T09:39:47;101490.72;;;10.06;73.83
69574;BME280;62840;52.366;5.980;2024-02-21T09:42:15;101490.50;;;10.09;73.77
69574;BME280;62840;52.366;5.980;2024-02-21T09:44:45;101481.56;;;10.10;73.76
69574;BME280;62840;52.366;5.980;2024-02-21T09:47:16;101484.94;;;10.12;73.76
69574;BME280;62840;52.366;5.980;2024-02-21T09:49:51;101477.69;;;10.14;73.61
69574;BME280;62840;52.366;5.980;2024-02-21T09:52:19;101482.81;;;10.17;73.70
69574;BME280;62840;52.366;5.980;2024-02-21T09:54:47;101462.09;;;10.21;73.51
69574;BME280;62840;52.366;5.980;2024-02-21T09:57:13;101454.00;;;10.22;73.35
69574;BME280;62840;52.366;5.980;2024-02-21T09:59:40;101457.44;;;10.24;73.37
69574;BME280;62840;52.366;5.980;2024-02-21T10:02:06;101447.41;;;10.28;73.27
69574;BME280;62840;52.366;5.980;2024-02-21T10:04:32;101454.31;;;10.31;73.31
69574;BME280;62840;52.366;5.980;2024-02-21T10:07:01;101442.69;;;10.32;72.88
69574;BME280;62840;52.366;5.980;2024-02-21T10:09:28;101444.41;;;10.33;72.71
69574;BME280;62840;52.366;5.980;2024-02-21T10:11:55;101433.63;;;10.34;73.10
69574;BME280;62840;52.366;5.980;2024-02-21T10:14:21;101425.50;;;10.36;72.88
69574;BME280;62840;52.366;5.980;2024-02-21T10:16:48;101426.25;;;10.38;72.91
69574;BME280;62840;52.366;5.980;2024-02-21T10:19:21;101419.00;;;10.40;72.88
69574;BME280;62840;52.366;5.980;2024-02-21T10:22:03;101403.75;;;10.42;72.90
69574;BME280;62840;52.366;5.980;2024-02-21T10:24:30;101400.84;;;10.45;72.84
69574;BME280;62840;52.366;5.980;2024-02-21T10:27:03;101397.00;;;10.49;72.50
69574;BME280;62840;52.366;5.980;2024-02-21T10:29:30;101389.94;;;10.48;72.40
69574;BME280;62840;52.366;5.980;2024-02-21T10:32:07;101390.69;;;10.50;72.64
69574;BME280;62840;52.366;5.980;2024-02-21T10:34:34;101390.56;;;10.52;72.63
69574;BME280;62840;52.366;5.980;2024-02-21T10:37:04;101380.75;;;10.52;72.44
69574;BME280;62840;52.366;5.980;2024-02-21T10:39:32;101371.81;;;10.53;72.35
69574;BME280;62840;52.366;5.980;2024-02-21T10:42:00;101373.50;;;10.54;72.26
69574;BME280;62840;52.366;5.980;2024-02-21T10:44:28;101364.75;;;10.52;72.20
69574;BME280;62840;52.366;5.980;2024-02-21T10:46:55;101361.34;;;10.50;71.97
69574;BME280;62840;52.366;5.980;2024-02-21T10:49:23;101354.56;;;10.46;71.92
69574;BME280;62840;52.366;5.980;2024-02-21T10:51:52;101343.91;;;10.46;72.11
69574;BME280;62840;52.366;5.980;2024-02-21T10:54:39;101350.91;;;10.47;72.31
69574;BME280;62840;52.366;5.980;2024-02-21T10:57:12;101350.06;;;10.46;72.35
69574;BME280;62840;52.366;5.980;2024-02-21T10:59:39;101354.31;;;10.49;72.24
69574;BME280;62840;52.366;5.980;2024-02-21T11:02:06;101344.59;;;10.48;72.11
69574;BME280;62840;52.366;5.980;2024-02-21T11:04:33;101335.66;;;10.49;72.06
69574;BME280;62840;52.366;5.980;2024-02-21T11:07:01;101341.72;;;10.51;72.01
69574;BME280;62840;52.366;5.980;2024-02-21T11:09:34;101327.41;;;10.52;71.88
69574;BME280;62840;52.366;5.980;2024-02-21T11:12:02;101332.75;;;10.52;71.67
69574;BME280;62840;52.366;5.980;2024-02-21T11:14:30;101325.72;;;10.51;71.73
69574;BME280;62840;52.366;5.980;2024-02-21T11:16:57;101306.22;;;10.51;71.70
69574;BME280;62840;52.366;5.980;2024-02-21T11:19:24;101303.41;;;10.52;71.65
69574;BME280;62840;52.366;5.980;2024-02-21T11:21:51;101296.25;;;10.53;71.39
69574;BME280;62840;52.366;5.980;2024-02-21T11:24:25;101285.72;;;10.51;71.63
69574;BME280;62840;52.366;5.980;2024-02-21T11:26:54;101277.72;;;10.51;71.72
69574;BME280;62840;52.366;5.980;2024-02-21T11:29:23;101270.66;;;10.50;71.65
69574;BME280;62840;52.366;5.980;2024-02-21T11:31:49;101247.66;;;10.49;71.58
69574;BME280;62840;52.366;5.980;2024-02-21T11:34:17;101223.53;;;10.51;71.53
69574;BME280;62840;52.366;5.980;2024-02-21T11:36:47;101224.38;;;10.51;71.64
69574;BME280;62840;52.366;5.980;2024-02-21T11:39:18;101223.31;;;10.54;71.54
69574;BME280;62840;52.366;5.980;2024-02-21T11:41:47;101210.81;;;10.54;71.47
69574;BME280;62840;52.366;5.980;2024-02-21T11:44:26;101205.47;;;10.54;71.74
69574;BME280;62840;52.366;5.980;2024-02-21T11:46:52;101210.69;;;10.56;71.71
69574;BME280;62840;52.366;5.980;2024-02-21T11:49:18;101253.97;;;10.59;71.79
69574;BME280;62840;52.366;5.980;2024-02-21T11:51:44;101241.63;;;10.58;71.66
69574;BME280;62840;52.366;5.980;2024-02-21T11:54:11;101237.25;;;10.57;71.37
69574;BME280;62840;52.366;5.980;2024-02-21T11:56:37;101242.81;;;10.54;71.21
69574;BME280;62840;52.366;5.980;2024-02-21T11:59:06;101227.78;;;10.53;71.36
69574;BME280;62840;52.366;5.980;2024-02-21T12:01:32;101225.22;;;10.52;71.58
69574;BME280;62840;52.366;5.980;2024-02-21T12:03:58;101235.25;;;10.48;71.29
69574;BME280;62840;52.366;5.980;2024-02-21T12:06:24;101222.91;;;10.47;71.46
69574;BME280;62840;52.366;5.980;2024-02-21T12:08:49;101197.34;;;10.44;71.39
69574;BME280;62840;52.366;5.980;2024-02-21T12:11:17;101184.00;;;10.44;71.30
69574;BME280;62840;52.366;5.980;2024-02-21T12:13:45;101189.34;;;10.44;71.62
69574;BME280;62840;52.366;5.980;2024-02-21T12:16:15;101191.16;;;10.44;71.60
69574;BME280;62840;52.366;5.980;2024-02-21T12:18:41;101197.34;;;10.44;71.51
69574;BME280;62840;52.366;5.980;2024-02-21T12:21:07;101192.13;;;10.43;71.18
69574;BME280;62840;52.366;5.980;2024-02-21T12:23:33;101180.72;;;10.41;71.15
69574;BME280;62840;52.366;5.980;2024-02-21T12:25:59;101181.69;;;10.40;71.32
69574;BME280;62840;52.366;5.980;2024-02-21T12:28:25;101166.66;;;10.39;71.29
69574;BME280;62840;52.366;5.980;2024-02-21T12:30:51;101145.56;;;10.36;71.34
69574;BME280;62840;52.366;5.980;2024-02-21T12:33:19;101143.63;;;10.38;71.30
69574;BME280;62840;52.366;5.980;2024-02-21T12:35:46;101111.63;;;10.38;71.33
69574;BME280;62840;52.366;5.980;2024-02-21T12:38:12;101100.72;;;10.41;71.34
69574;BME280;62840;52.366;5.980;2024-02-21T12:40:38;101083.53;;;10.45;71.28
69574;BME280;62840;52.366;5.980;2024-02-21T12:43:04;101066.31;;;10.49;71.14
69574;BME280;62840;52.366;5.980;2024-02-21T12:45:30;101045.72;;;10.51;71.20
69574;BME280;62840;52.366;5.980;2024-02-21T12:47:56;101038.31;;;10.55;71.42
69574;BME280;62840;52.366;5.980;2024-02-21T12:50:24;101047.75;;;10.59;71.53
69574;BME280;62840;52.366;5.980;2024-02-21T12:52:50;101051.88;;;10.63;71.36
69574;BME280;62840;52.366;5.980;2024-02-21T12:55:16;101056.13;;;10.65;71.49